Portada
METAR-TAF:

METAR-TAF

Aeropuertos :

Aeropuerto Internacional General José Antonio Anzoátegui

Barcelona, Venezuela

latitud: 10-07N, longitud: 064-41W, altitud: 7 m

METAR: falta

Hora: 00:45 (04:45 UTC)

Pronóstico

El informe se hizo hace 6 horas y 45 minutos, a las 22:00 UTC
Pronóstico válido del 21 a las 00 UTC al 22 a las 00 UTC
Viento 2 kt del norte
Visibilidad 10 km o más
Escasas nubes a una altura de 1600 ft
Evolucionando progresivamente
del 21 a las 00 UTC al 21 a las 04 UTC
Viento 2 kt del sur
Visibilidad 10 km o más
Escasas nubes a una altura de 1600 ft

TAF: SVBC 202200Z 2100/2200 00002KT 9999 FEW016 TX30/2115Z TN24/2106Z BECMG 2100/2104 19002KT 9999 FEW016

Observaciones y pronósticos meteorológicos de más de 4000 aeropuertos (mensajes METAR y TAF).

Los puntos amarillos y rojos representan las estaciones disponibles.

Ponga el ratón en el punto deseado para ver el nombre de la estación.

Haga clic para ver las observaciones y los pronósticos meteorológicos.

Para cambiar el mapa : haga clic en los botones verdes con una cruz de color negro para hacer un zoom, en el botón verde con un guión para alejar o en las flechas verdes para mapas adyacentes.


METAR-TAF: